El Colorado, Argentina
Current Conditions -  °F | °C
As of 10:00 AM on Saturday 22 Nov 2014 (Local Time) from SARF Reporting Station
Clear Clear  
Wind Chill: 75°   Ceiling: Unl
Heat Index: 75°   Visibility: 6mi
Dew Point: 61°   Wind: 7mph
Humidity: 61%   Direction: 180°S
Pressure: 29.97"   Gusts: NA
Location:  26.3°S, 59.37°W
Report Text: SARF 221300Z 18006KT CAVOK 24/16 Q1015
Loading
Personal Weather Stations






























Interactive Weather Map New forecast layout! Learn more

10-Day Weather Forecast

Advertisements
Track Severe Weather on mobile